sensor_id;sensor_type;location;lat;lon;timestamp;P1;durP1;ratioP1;P2;durP2;ratioP2
19036;SDS011;9651;49.138;8.900;2024-03-08T00:00:27;21.37;;;12.33;;
19036;SDS011;9651;49.138;8.900;2024-03-08T00:04:30;25.73;;;13.67;;
19036;SDS011;9651;49.138;8.900;2024-03-08T00:08:32;24.60;;;12.90;;
19036;SDS011;9651;49.138;8.900;2024-03-08T00:12:34;24.03;;;12.37;;
19036;SDS011;9651;49.138;8.900;2024-03-08T00:16:36;22.57;;;12.67;;
19036;SDS011;9651;49.138;8.900;2024-03-08T00:20:40;22.13;;;12.50;;
19036;SDS011;9651;49.138;8.900;2024-03-08T00:24:41;23.77;;;12.97;;
19036;SDS011;9651;49.138;8.900;2024-03-08T00:28:43;26.80;;;13.57;;
19036;SDS011;9651;49.138;8.900;2024-03-08T00:32:45;22.67;;;12.97;;
19036;SDS011;9651;49.138;8.900;2024-03-08T00:36:48;27.60;;;13.60;;
19036;SDS011;9651;49.138;8.900;2024-03-08T00:40:52;25.00;;;13.43;;
19036;SDS011;9651;49.138;8.900;2024-03-08T00:44:53;24.80;;;12.63;;
19036;SDS011;9651;49.138;8.900;2024-03-08T00:48:55;24.00;;;13.33;;
19036;SDS011;9651;49.138;8.900;2024-03-08T00:52:58;25.70;;;13.07;;
19036;SDS011;9651;49.138;8.900;2024-03-08T00:57:00;26.47;;;13.10;;
19036;SDS011;9651;49.138;8.900;2024-03-08T01:01:03;23.43;;;12.97;;
19036;SDS011;9651;49.138;8.900;2024-03-08T01:05:05;23.60;;;13.10;;
19036;SDS011;9651;49.138;8.900;2024-03-08T01:09:09;24.23;;;13.40;;
19036;SDS011;9651;49.138;8.900;2024-03-08T01:13:11;23.63;;;14.00;;
19036;SDS011;9651;49.138;8.900;2024-03-08T01:17:13;27.97;;;13.50;;
19036;SDS011;9651;49.138;8.900;2024-03-08T01:21:15;25.37;;;13.30;;
19036;SDS011;9651;49.138;8.900;2024-03-08T01:25:18;23.13;;;12.93;;
19036;SDS011;9651;49.138;8.900;2024-03-08T01:29:20;23.80;;;12.43;;
19036;SDS011;9651;49.138;8.900;2024-03-08T01:33:22;26.70;;;13.67;;
19036;SDS011;9651;49.138;8.900;2024-03-08T01:37:25;25.00;;;13.43;;
19036;SDS011;9651;49.138;8.900;2024-03-08T01:41:28;25.03;;;13.10;;
19036;SDS011;9651;49.138;8.900;2024-03-08T01:45:30;24.40;;;12.03;;
19036;SDS011;9651;49.138;8.900;2024-03-08T01:49:34;25.90;;;14.13;;
19036;SDS011;9651;49.138;8.900;2024-03-08T01:53:36;30.23;;;13.53;;
19036;SDS011;9651;49.138;8.900;2024-03-08T01:57:39;26.07;;;13.13;;
19036;SDS011;9651;49.138;8.900;2024-03-08T02:01:42;24.63;;;13.43;;
19036;SDS011;9651;49.138;8.900;2024-03-08T02:05:44;27.07;;;14.10;;
19036;SDS011;9651;49.138;8.900;2024-03-08T02:09:46;28.27;;;12.90;;
19036;SDS011;9651;49.138;8.900;2024-03-08T02:13:49;23.47;;;14.03;;
19036;SDS011;9651;49.138;8.900;2024-03-08T02:17:51;29.37;;;13.73;;
19036;SDS011;9651;49.138;8.900;2024-03-08T02:21:55;25.73;;;13.57;;
19036;SDS011;9651;49.138;8.900;2024-03-08T02:25:58;26.23;;;14.07;;
19036;SDS011;9651;49.138;8.900;2024-03-08T02:30:00;27.03;;;14.27;;
19036;SDS011;9651;49.138;8.900;2024-03-08T02:34:02;25.13;;;13.27;;
19036;SDS011;9651;49.138;8.900;2024-03-08T02:38:06;29.07;;;13.67;;
19036;SDS011;9651;49.138;8.900;2024-03-08T02:42:09;24.13;;;13.07;;
19036;SDS011;9651;49.138;8.900;2024-03-08T02:46:11;28.80;;;12.87;;
19036;SDS011;9651;49.138;8.900;2024-03-08T02:50:12;26.07;;;13.53;;
19036;SDS011;9651;49.138;8.900;2024-03-08T02:54:17;24.20;;;13.10;;
19036;SDS011;9651;49.138;8.900;2024-03-08T02:58:19;27.00;;;13.40;;
19036;SDS011;9651;49.138;8.900;2024-03-08T03:02:21;26.50;;;13.83;;
19036;SDS011;9651;49.138;8.900;2024-03-08T03:06:24;28.87;;;14.33;;
19036;SDS011;9651;49.138;8.900;2024-03-08T03:10:27;27.97;;;13.97;;
19036;SDS011;9651;49.138;8.900;2024-03-08T03:14:29;27.47;;;12.77;;
19036;SDS011;9651;49.138;8.900;2024-03-08T03:18:31;25.70;;;13.30;;
19036;SDS011;9651;49.138;8.900;2024-03-08T03:22:33;25.23;;;13.63;;
19036;SDS011;9651;49.138;8.900;2024-03-08T03:26:37;28.83;;;14.53;;
19036;SDS011;9651;49.138;8.900;2024-03-08T03:30:40;30.00;;;14.53;;
19036;SDS011;9651;49.138;8.900;2024-03-08T03:34:42;27.00;;;13.67;;
19036;SDS011;9651;49.138;8.900;2024-03-08T03:38:44;25.50;;;13.10;;
19036;SDS011;9651;49.138;8.900;2024-03-08T03:42:47;28.47;;;13.60;;
19036;SDS011;9651;49.138;8.900;2024-03-08T03:46:49;25.87;;;12.70;;
19036;SDS011;9651;49.138;8.900;2024-03-08T03:50:52;26.07;;;13.13;;
19036;SDS011;9651;49.138;8.900;2024-03-08T03:54:54;24.73;;;13.70;;
19036;SDS011;9651;49.138;8.900;2024-03-08T03:58:58;24.63;;;12.57;;
19036;SDS011;9651;49.138;8.900;2024-03-08T04:03:00;28.73;;;12.97;;
19036;SDS011;9651;49.138;8.900;2024-03-08T04:07:02;33.13;;;13.23;;
19036;SDS011;9651;49.138;8.900;2024-03-08T04:11:03;27.93;;;13.43;;
19036;SDS011;9651;49.138;8.900;2024-03-08T04:15:07;26.23;;;13.67;;
19036;SDS011;9651;49.138;8.900;2024-03-08T04:19:11;30.90;;;14.03;;
19036;SDS011;9651;49.138;8.900;2024-03-08T04:23:13;26.47;;;13.20;;
19036;SDS011;9651;49.138;8.900;2024-03-08T04:27:15;25.20;;;13.47;;
19036;SDS011;9651;49.138;8.900;2024-03-08T04:31:19;26.00;;;13.50;;
19036;SDS011;9651;49.138;8.900;2024-03-08T04:35:21;23.97;;;13.93;;
19036;SDS011;9651;49.138;8.900;2024-03-08T04:39:24;22.10;;;12.43;;
19036;SDS011;9651;49.138;8.900;2024-03-08T04:43:28;25.43;;;13.30;;
19036;SDS011;9651;49.138;8.900;2024-03-08T04:47:31;28.77;;;15.13;;
19036;SDS011;9651;49.138;8.900;2024-03-08T04:51:33;24.77;;;12.63;;
19036;SDS011;9651;49.138;8.900;2024-03-08T04:55:35;25.23;;;13.13;;
19036;SDS011;9651;49.138;8.900;2024-03-08T04:59:37;22.83;;;12.03;;
19036;SDS011;9651;49.138;8.900;2024-03-08T05:03:41;28.40;;;13.57;;
19036;SDS011;9651;49.138;8.900;2024-03-08T05:07:43;24.37;;;13.10;;
19036;SDS011;9651;49.138;8.900;2024-03-08T05:11:46;26.50;;;13.97;;
19036;SDS011;9651;49.138;8.900;2024-03-08T05:15:48;28.67;;;14.37;;
19036;SDS011;9651;49.138;8.900;2024-03-08T05:19:52;25.00;;;13.13;;
19036;SDS011;9651;49.138;8.900;2024-03-08T05:23:54;26.40;;;14.53;;
19036;SDS011;9651;49.138;8.900;2024-03-08T05:27:56;26.80;;;13.40;;
19036;SDS011;9651;49.138;8.900;2024-03-08T05:31:58;26.83;;;14.43;;
19036;SDS011;9651;49.138;8.900;2024-03-08T05:36:01;30.57;;;14.47;;
19036;SDS011;9651;49.138;8.900;2024-03-08T05:40:03;26.43;;;14.20;;
19036;SDS011;9651;49.138;8.900;2024-03-08T05:44:09;30.93;;;14.43;;
19036;SDS011;9651;49.138;8.900;2024-03-08T05:48:11;30.67;;;13.70;;
19036;SDS011;9651;49.138;8.900;2024-03-08T05:52:16;26.57;;;13.03;;
19036;SDS011;9651;49.138;8.900;2024-03-08T05:56:18;29.53;;;14.10;;
19036;SDS011;9651;49.138;8.900;2024-03-08T06:00:19;29.70;;;14.17;;
19036;SDS011;9651;49.138;8.900;2024-03-08T06:04:22;32.10;;;16.20;;
19036;SDS011;9651;49.138;8.900;2024-03-08T06:08:25;29.20;;;15.13;;
19036;SDS011;9651;49.138;8.900;2024-03-08T06:12:29;29.40;;;14.43;;
19036;SDS011;9651;49.138;8.900;2024-03-08T06:16:33;28.93;;;14.27;;
19036;SDS011;9651;49.138;8.900;2024-03-08T06:20:36;30.03;;;14.77;;
19036;SDS011;9651;49.138;8.900;2024-03-08T06:24:39;41.47;;;19.70;;
19036;SDS011;9651;49.138;8.900;2024-03-08T06:28:41;39.30;;;17.63;;
19036;SDS011;9651;49.138;8.900;2024-03-08T06:32:42;43.23;;;18.23;;
19036;SDS011;9651;49.138;8.900;2024-03-08T06:36:44;48.50;;;20.90;;
19036;SDS011;9651;49.138;8.900;2024-03-08T06:40:47;40.57;;;17.80;;
19036;SDS011;9651;49.138;8.900;2024-03-08T06:44:51;32.90;;;16.40;;
19036;SDS011;9651;49.138;8.900;2024-03-08T06:48:55;27.73;;;14.80;;
19036;SDS011;9651;49.138;8.900;2024-03-08T06:52:57;31.20;;;15.37;;
19036;SDS011;9651;49.138;8.900;2024-03-08T06:57:01;29.77;;;15.17;;
19036;SDS011;9651;49.138;8.900;2024-03-08T07:01:03;28.20;;;14.13;;
19036;SDS011;9651;49.138;8.900;2024-03-08T07:05:07;30.67;;;13.70;;
19036;SDS011;9651;49.138;8.900;2024-03-08T07:09:10;34.47;;;14.77;;
19036;SDS011;9651;49.138;8.900;2024-03-08T07:13:15;24.87;;;13.63;;
19036;SDS011;9651;49.138;8.900;2024-03-08T07:17:17;23.90;;;13.70;;
19036;SDS011;9651;49.138;8.900;2024-03-08T07:21:19;31.30;;;14.93;;
19036;SDS011;9651;49.138;8.900;2024-03-08T07:25:21;28.33;;;15.13;;
19036;SDS011;9651;49.138;8.900;2024-03-08T07:29:25;26.90;;;14.30;;
19036;SDS011;9651;49.138;8.900;2024-03-08T07:33:28;24.90;;;13.63;;
19036;SDS011;9651;49.138;8.900;2024-03-08T07:37:30;24.63;;;14.67;;
19036;SDS011;9651;49.138;8.900;2024-03-08T07:41:32;23.87;;;13.40;;
19036;SDS011;9651;49.138;8.900;2024-03-08T07:45:38;24.17;;;13.13;;
19036;SDS011;9651;49.138;8.900;2024-03-08T07:49:40;24.13;;;14.93;;
19036;SDS011;9651;49.138;8.900;2024-03-08T07:53:41;25.33;;;13.57;;
19036;SDS011;9651;49.138;8.900;2024-03-08T07:57:43;24.00;;;14.23;;
19036;SDS011;9651;49.138;8.900;2024-03-08T08:01:48;23.47;;;14.30;;
19036;SDS011;9651;49.138;8.900;2024-03-08T08:05:50;25.03;;;13.90;;
19036;SDS011;9651;49.138;8.900;2024-03-08T08:09:52;25.73;;;13.90;;
19036;SDS011;9651;49.138;8.900;2024-03-08T08:13:54;27.13;;;14.17;;
19036;SDS011;9651;49.138;8.900;2024-03-08T08:17:57;28.13;;;15.00;;
19036;SDS011;9651;49.138;8.900;2024-03-08T08:21:59;24.37;;;13.47;;
19036;SDS011;9651;49.138;8.900;2024-03-08T08:26:02;24.07;;;13.30;;
19036;SDS011;9651;49.138;8.900;2024-03-08T08:30:05;23.33;;;13.57;;
19036;SDS011;9651;49.138;8.900;2024-03-08T08:34:10;25.30;;;13.10;;
19036;SDS011;9651;49.138;8.900;2024-03-08T08:38:13;29.77;;;14.77;;
19036;SDS011;9651;49.138;8.900;2024-03-08T08:42:15;25.60;;;13.90;;
19036;SDS011;9651;49.138;8.900;2024-03-08T08:46:18;24.03;;;13.13;;
19036;SDS011;9651;49.138;8.900;2024-03-08T08:50:23;21.97;;;12.57;;
19036;SDS011;9651;49.138;8.900;2024-03-08T08:54:25;21.47;;;11.97;;
19036;SDS011;9651;49.138;8.900;2024-03-08T08:58:27;24.27;;;13.43;;
19036;SDS011;9651;49.138;8.900;2024-03-08T09:02:29;22.77;;;11.70;;
19036;SDS011;9651;49.138;8.900;2024-03-08T09:06:32;23.63;;;12.77;;
19036;SDS011;9651;49.138;8.900;2024-03-08T09:10:36;25.87;;;14.00;;
19036;SDS011;9651;49.138;8.900;2024-03-08T09:14:39;27.67;;;14.60;;
19036;SDS011;9651;49.138;8.900;2024-03-08T09:18:41;26.77;;;13.67;;
19036;SDS011;9651;49.138;8.900;2024-03-08T09:22:44;24.77;;;12.97;;
19036;SDS011;9651;49.138;8.900;2024-03-08T09:26:47;21.47;;;12.67;;
19036;SDS011;9651;49.138;8.900;2024-03-08T09:30:48;26.57;;;12.57;;
19036;SDS011;9651;49.138;8.900;2024-03-08T09:34:50;28.23;;;13.93;;
19036;SDS011;9651;49.138;8.900;2024-03-08T09:38:53;23.50;;;12.40;;
19036;SDS011;9651;49.138;8.900;2024-03-08T09:42:55;23.07;;;12.63;;
19036;SDS011;9651;49.138;8.900;2024-03-08T09:46:57;26.90;;;12.03;;
19036;SDS011;9651;49.138;8.900;2024-03-08T09:51:02;25.67;;;13.40;;
19036;SDS011;9651;49.138;8.900;2024-03-08T09:55:06;22.73;;;12.70;;
19036;SDS011;9651;49.138;8.900;2024-03-08T09:59:10;22.03;;;12.80;;
19036;SDS011;9651;49.138;8.900;2024-03-08T10:03:29;20.17;;;11.10;;
19036;SDS011;9651;49.138;8.900;2024-03-08T10:07:32;21.00;;;11.83;;
19036;SDS011;9651;49.138;8.900;2024-03-08T10:11:36;22.63;;;11.47;;
19036;SDS011;9651;49.138;8.900;2024-03-08T10:15:38;18.77;;;10.70;;
19036;SDS011;9651;49.138;8.900;2024-03-08T10:19:49;21.53;;;12.20;;
19036;SDS011;9651;49.138;8.900;2024-03-08T10:23:52;19.63;;;10.60;;
19036;SDS011;9651;49.138;8.900;2024-03-08T10:27:55;21.17;;;11.20;;
19036;SDS011;9651;49.138;8.900;2024-03-08T10:31:57;18.30;;;10.83;;
19036;SDS011;9651;49.138;8.900;2024-03-08T10:35:59;23.47;;;11.23;;
19036;SDS011;9651;49.138;8.900;2024-03-08T10:40:04;18.70;;;11.57;;
19036;SDS011;9651;49.138;8.900;2024-03-08T10:44:14;20.30;;;11.80;;
19036;SDS011;9651;49.138;8.900;2024-03-08T10:48:26;18.03;;;10.77;;
19036;SDS011;9651;49.138;8.900;2024-03-08T10:52:31;17.33;;;10.90;;
19036;SDS011;9651;49.138;8.900;2024-03-08T10:56:34;17.60;;;10.47;;
19036;SDS011;9651;49.138;8.900;2024-03-08T11:00:38;18.23;;;10.50;;
19036;SDS011;9651;49.138;8.900;2024-03-08T11:04:45;18.50;;;11.03;;
19036;SDS011;9651;49.138;8.900;2024-03-08T11:08:49;18.70;;;10.57;;
19036;SDS011;9651;49.138;8.900;2024-03-08T11:12:51;19.43;;;11.70;;
19036;SDS011;9651;49.138;8.900;2024-03-08T11:16:55;21.57;;;11.63;;
19036;SDS011;9651;49.138;8.900;2024-03-08T11:20:56;22.93;;;12.67;;
19036;SDS011;9651;49.138;8.900;2024-03-08T11:24:58;20.70;;;12.03;;
19036;SDS011;9651;49.138;8.900;2024-03-08T11:33:39;21.93;;;11.63;;
19036;SDS011;9651;49.138;8.900;2024-03-08T11:37:44;18.47;;;11.30;;
19036;SDS011;9651;49.138;8.900;2024-03-08T11:41:46;15.98;;;11.43;;
19036;SDS011;9651;49.138;8.900;2024-03-08T11:45:49;16.42;;;11.82;;
19036;SDS011;9651;49.138;8.900;2024-03-08T11:49:54;18.30;;;13.45;;
19036;SDS011;9651;49.138;8.900;2024-03-08T11:53:56;16.30;;;11.68;;
19036;SDS011;9651;49.138;8.900;2024-03-08T11:57:59;19.52;;;12.05;;
19036;SDS011;9651;49.138;8.900;2024-03-08T12:02:03;19.75;;;12.70;;
19036;SDS011;9651;49.138;8.900;2024-03-08T12:06:07;20.08;;;12.80;;
19036;SDS011;9651;49.138;8.900;2024-03-08T12:10:16;17.05;;;11.77;;
19036;SDS011;9651;49.138;8.900;2024-03-08T12:14:19;16.85;;;11.90;;
19036;SDS011;9651;49.138;8.900;2024-03-08T12:18:22;16.42;;;11.93;;
19036;SDS011;9651;49.138;8.900;2024-03-08T12:22:26;16.98;;;13.07;;
19036;SDS011;9651;49.138;8.900;2024-03-08T12:26:28;14.85;;;11.95;;
19036;SDS011;9651;49.138;8.900;2024-03-08T12:30:32;17.92;;;13.55;;
19036;SDS011;9651;49.138;8.900;2024-03-08T12:34:34;19.88;;;14.38;;
19036;SDS011;9651;49.138;8.900;2024-03-08T12:38:38;20.05;;;13.75;;
19036;SDS011;9651;49.138;8.900;2024-03-08T12:42:40;17.98;;;12.52;;
19036;SDS011;9651;49.138;8.900;2024-03-08T12:46:43;15.82;;;12.23;;
19036;SDS011;9651;49.138;8.900;2024-03-08T12:50:45;18.65;;;13.18;;
19036;SDS011;9651;49.138;8.900;2024-03-08T12:54:49;16.08;;;12.35;;
19036;SDS011;9651;49.138;8.900;2024-03-08T12:58:51;19.92;;;13.57;;
19036;SDS011;9651;49.138;8.900;2024-03-08T13:02:53;20.00;;;13.85;;
19036;SDS011;9651;49.138;8.900;2024-03-08T13:06:55;19.67;;;13.70;;
19036;SDS011;9651;49.138;8.900;2024-03-08T13:10:59;19.27;;;13.23;;
19036;SDS011;9651;49.138;8.900;2024-03-08T13:15:01;20.70;;;14.27;;
19036;SDS011;9651;49.138;8.900;2024-03-08T13:19:05;23.27;;;14.50;;
19036;SDS011;9651;49.138;8.900;2024-03-08T13:23:06;24.87;;;14.63;;
19036;SDS011;9651;49.138;8.900;2024-03-08T13:27:10;21.43;;;14.03;;
19036;SDS011;9651;49.138;8.900;2024-03-08T13:31:19;17.13;;;11.50;;
19036;SDS011;9651;49.138;8.900;2024-03-08T13:35:21;21.70;;;13.27;;
19036;SDS011;9651;49.138;8.900;2024-03-08T13:39:28;21.17;;;13.30;;
19036;SDS011;9651;49.138;8.900;2024-03-08T13:43:36;22.57;;;13.80;;
19036;SDS011;9651;49.138;8.900;2024-03-08T13:47:38;21.07;;;12.53;;
19036;SDS011;9651;49.138;8.900;2024-03-08T13:51:41;20.67;;;13.43;;
19036;SDS011;9651;49.138;8.900;2024-03-08T13:55:42;22.80;;;12.67;;
19036;SDS011;9651;49.138;8.900;2024-03-08T13:59:46;22.07;;;14.03;;
19036;SDS011;9651;49.138;8.900;2024-03-08T14:03:49;22.23;;;13.60;;
19036;SDS011;9651;49.138;8.900;2024-03-08T14:07:51;24.13;;;13.90;;
19036;SDS011;9651;49.138;8.900;2024-03-08T14:11:54;22.43;;;13.77;;
19036;SDS011;9651;49.138;8.900;2024-03-08T14:15:57;22.27;;;13.50;;
19036;SDS011;9651;49.138;8.900;2024-03-08T14:19:59;23.77;;;14.00;;
19036;SDS011;9651;49.138;8.900;2024-03-08T14:24:01;22.13;;;13.30;;
19036;SDS011;9651;49.138;8.900;2024-03-08T14:28:05;24.60;;;14.20;;
19036;SDS011;9651;49.138;8.900;2024-03-08T14:32:09;24.67;;;13.47;;
19036;SDS011;9651;49.138;8.900;2024-03-08T14:36:13;22.83;;;13.70;;
19036;SDS011;9651;49.138;8.900;2024-03-08T14:40:17;24.00;;;14.40;;
19036;SDS011;9651;49.138;8.900;2024-03-08T14:44:22;21.73;;;13.90;;
19036;SDS011;9651;49.138;8.900;2024-03-08T14:48:27;22.93;;;13.47;;
19036;SDS011;9651;49.138;8.900;2024-03-08T14:52:29;25.23;;;14.23;;
19036;SDS011;9651;49.138;8.900;2024-03-08T14:56:31;23.37;;;14.03;;
19036;SDS011;9651;49.138;8.900;2024-03-08T15:00:33;22.10;;;13.60;;
19036;SDS011;9651;49.138;8.900;2024-03-08T15:04:36;21.43;;;13.47;;
19036;SDS011;9651;49.138;8.900;2024-03-08T15:08:41;24.10;;;13.17;;
19036;SDS011;9651;49.138;8.900;2024-03-08T15:12:44;22.97;;;13.33;;
19036;SDS011;9651;49.138;8.900;2024-03-08T15:16:47;22.47;;;13.97;;
19036;SDS011;9651;49.138;8.900;2024-03-08T15:20:52;18.53;;;11.57;;
19036;SDS011;9651;49.138;8.900;2024-03-08T15:24:55;19.83;;;11.40;;
19036;SDS011;9651;49.138;8.900;2024-03-08T15:28:58;22.30;;;13.20;;
19036;SDS011;9651;49.138;8.900;2024-03-08T15:33:00;26.83;;;14.40;;
19036;SDS011;9651;49.138;8.900;2024-03-08T15:37:04;22.03;;;14.17;;
19036;SDS011;9651;49.138;8.900;2024-03-08T15:41:07;22.57;;;13.60;;
19036;SDS011;9651;49.138;8.900;2024-03-08T15:45:09;22.53;;;13.10;;
19036;SDS011;9651;49.138;8.900;2024-03-08T15:49:12;20.73;;;12.90;;
19036;SDS011;9651;49.138;8.900;2024-03-08T15:53:15;23.73;;;15.17;;
19036;SDS011;9651;49.138;8.900;2024-03-08T15:57:18;20.30;;;12.93;;
19036;SDS011;9651;49.138;8.900;2024-03-08T16:01:21;24.40;;;13.60;;
19036;SDS011;9651;49.138;8.900;2024-03-08T16:05:24;27.97;;;14.50;;
19036;SDS011;9651;49.138;8.900;2024-03-08T16:09:28;22.60;;;13.73;;
19036;SDS011;9651;49.138;8.900;2024-03-08T16:13:30;26.00;;;14.70;;
19036;SDS011;9651;49.138;8.900;2024-03-08T16:17:33;27.77;;;14.93;;
19036;SDS011;9651;49.138;8.900;2024-03-08T16:21:35;23.00;;;13.33;;
19036;SDS011;9651;49.138;8.900;2024-03-08T16:25:38;25.40;;;14.33;;
19036;SDS011;9651;49.138;8.900;2024-03-08T16:29:41;25.47;;;13.23;;
19036;SDS011;9651;49.138;8.900;2024-03-08T16:33:44;26.63;;;15.93;;
19036;SDS011;9651;49.138;8.900;2024-03-08T16:37:47;26.10;;;14.87;;
19036;SDS011;9651;49.138;8.900;2024-03-08T16:41:52;24.97;;;14.43;;
19036;SDS011;9651;49.138;8.900;2024-03-08T16:45:54;25.50;;;14.10;;
19036;SDS011;9651;49.138;8.900;2024-03-08T16:49:58;20.90;;;12.87;;
19036;SDS011;9651;49.138;8.900;2024-03-08T16:54:00;27.43;;;15.50;;
19036;SDS011;9651;49.138;8.900;2024-03-08T16:58:04;25.93;;;14.30;;
19036;SDS011;9651;49.138;8.900;2024-03-08T17:02:08;25.83;;;14.93;;
19036;SDS011;9651;49.138;8.900;2024-03-08T17:06:12;29.37;;;16.57;;
19036;SDS011;9651;49.138;8.900;2024-03-08T17:10:15;29.70;;;16.07;;
19036;SDS011;9651;49.138;8.900;2024-03-08T17:14:20;25.80;;;14.27;;
19036;SDS011;9651;49.138;8.900;2024-03-08T17:18:22;23.30;;;13.63;;
19036;SDS011;9651;49.138;8.900;2024-03-08T17:22:26;26.13;;;15.00;;
19036;SDS011;9651;49.138;8.900;2024-03-08T17:26:29;23.83;;;13.43;;
19036;SDS011;9651;49.138;8.900;2024-03-08T17:30:34;24.63;;;14.37;;
19036;SDS011;9651;49.138;8.900;2024-03-08T17:34:38;25.77;;;15.33;;
19036;SDS011;9651;49.138;8.900;2024-03-08T17:38:40;26.23;;;15.23;;
19036;SDS011;9651;49.138;8.900;2024-03-08T17:42:46;25.63;;;14.73;;
19036;SDS011;9651;49.138;8.900;2024-03-08T17:46:49;28.70;;;16.07;;
19036;SDS011;9651;49.138;8.900;2024-03-08T17:50:52;27.37;;;14.83;;
19036;SDS011;9651;49.138;8.900;2024-03-08T17:54:54;26.63;;;14.97;;
19036;SDS011;9651;49.138;8.900;2024-03-08T17:58:57;26.10;;;14.83;;
19036;SDS011;9651;49.138;8.900;2024-03-08T18:03:00;26.30;;;15.67;;
19036;SDS011;9651;49.138;8.900;2024-03-08T18:07:05;24.27;;;14.00;;
19036;SDS011;9651;49.138;8.900;2024-03-08T18:11:08;22.90;;;14.50;;
19036;SDS011;9651;49.138;8.900;2024-03-08T18:15:09;24.53;;;13.73;;
19036;SDS011;9651;49.138;8.900;2024-03-08T18:19:14;20.57;;;12.80;;
19036;SDS011;9651;49.138;8.900;2024-03-08T18:23:19;23.93;;;13.63;;
19036;SDS011;9651;49.138;8.900;2024-03-08T18:27:21;21.73;;;12.10;;
19036;SDS011;9651;49.138;8.900;2024-03-08T18:31:25;20.93;;;12.10;;
19036;SDS011;9651;49.138;8.900;2024-03-08T18:35:28;25.13;;;12.33;;
19036;SDS011;9651;49.138;8.900;2024-03-08T18:39:30;19.20;;;10.80;;
19036;SDS011;9651;49.138;8.900;2024-03-08T18:43:32;20.20;;;10.50;;
19036;SDS011;9651;49.138;8.900;2024-03-08T18:47:36;16.87;;;9.23;;
19036;SDS011;9651;49.138;8.900;2024-03-08T18:51:40;16.20;;;9.20;;
19036;SDS011;9651;49.138;8.900;2024-03-08T18:55:43;16.67;;;9.03;;
19036;SDS011;9651;49.138;8.900;2024-03-08T18:59:46;19.53;;;10.13;;
19036;SDS011;9651;49.138;8.900;2024-03-08T19:03:49;16.20;;;9.57;;
19036;SDS011;9651;49.138;8.900;2024-03-08T19:07:52;15.53;;;9.83;;
19036;SDS011;9651;49.138;8.900;2024-03-08T19:11:55;15.00;;;9.20;;
19036;SDS011;9651;49.138;8.900;2024-03-08T19:15:57;15.93;;;9.93;;
19036;SDS011;9651;49.138;8.900;2024-03-08T19:19:59;29.13;;;16.57;;
19036;SDS011;9651;49.138;8.900;2024-03-08T19:24:02;21.67;;;10.93;;
19036;SDS011;9651;49.138;8.900;2024-03-08T19:28:05;15.23;;;8.80;;
19036;SDS011;9651;49.138;8.900;2024-03-08T19:32:09;15.67;;;9.70;;
19036;SDS011;9651;49.138;8.900;2024-03-08T19:36:11;14.77;;;8.87;;
19036;SDS011;9651;49.138;8.900;2024-03-08T19:40:19;21.03;;;9.57;;
19036;SDS011;9651;49.138;8.900;2024-03-08T19:44:22;16.23;;;9.47;;
19036;SDS011;9651;49.138;8.900;2024-03-08T19:48:24;14.17;;;8.73;;
19036;SDS011;9651;49.138;8.900;2024-03-08T19:52:26;18.30;;;11.10;;
19036;SDS011;9651;49.138;8.900;2024-03-08T19:56:29;21.83;;;11.27;;
19036;SDS011;9651;49.138;8.900;2024-03-08T20:00:32;18.50;;;12.17;;
19036;SDS011;9651;49.138;8.900;2024-03-08T20:04:34;21.50;;;11.57;;
19036;SDS011;9651;49.138;8.900;2024-03-08T20:08:36;18.23;;;11.63;;
19036;SDS011;9651;49.138;8.900;2024-03-08T20:12:42;22.97;;;11.57;;
19036;SDS011;9651;49.138;8.900;2024-03-08T20:16:45;21.87;;;11.10;;
19036;SDS011;9651;49.138;8.900;2024-03-08T20:20:49;29.10;;;13.50;;
19036;SDS011;9651;49.138;8.900;2024-03-08T20:24:54;22.33;;;13.03;;
19036;SDS011;9651;49.138;8.900;2024-03-08T20:28:57;22.37;;;12.53;;
19036;SDS011;9651;49.138;8.900;2024-03-08T20:32:59;25.10;;;12.37;;
19036;SDS011;9651;49.138;8.900;2024-03-08T20:37:03;21.40;;;12.13;;
19036;SDS011;9651;49.138;8.900;2024-03-08T20:41:07;22.60;;;12.03;;
19036;SDS011;9651;49.138;8.900;2024-03-08T20:45:12;20.33;;;9.20;;
19036;SDS011;9651;49.138;8.900;2024-03-08T20:49:14;22.67;;;12.10;;
19036;SDS011;9651;49.138;8.900;2024-03-08T20:53:19;16.43;;;9.47;;
19036;SDS011;9651;49.138;8.900;2024-03-08T20:57:21;19.70;;;11.47;;
19036;SDS011;9651;49.138;8.900;2024-03-08T21:01:24;22.00;;;13.50;;
19036;SDS011;9651;49.138;8.900;2024-03-08T21:05:31;19.43;;;11.40;;
19036;SDS011;9651;49.138;8.900;2024-03-08T21:09:34;17.53;;;10.07;;
19036;SDS011;9651;49.138;8.900;2024-03-08T21:13:36;16.40;;;10.33;;
19036;SDS011;9651;49.138;8.900;2024-03-08T21:17:39;16.90;;;10.00;;
19036;SDS011;9651;49.138;8.900;2024-03-08T21:21:41;23.90;;;12.43;;
19036;SDS011;9651;49.138;8.900;2024-03-08T21:25:43;16.37;;;9.80;;
19036;SDS011;9651;49.138;8.900;2024-03-08T21:29:46;16.73;;;9.67;;
19036;SDS011;9651;49.138;8.900;2024-03-08T21:33:49;18.87;;;10.33;;
19036;SDS011;9651;49.138;8.900;2024-03-08T21:37:51;16.57;;;9.43;;
19036;SDS011;9651;49.138;8.900;2024-03-08T21:41:53;14.60;;;8.00;;
19036;SDS011;9651;49.138;8.900;2024-03-08T21:45:55;13.40;;;8.60;;
19036;SDS011;9651;49.138;8.900;2024-03-08T21:49:59;16.07;;;8.57;;
19036;SDS011;9651;49.138;8.900;2024-03-08T21:54:01;13.90;;;9.57;;
19036;SDS011;9651;49.138;8.900;2024-03-08T21:58:03;18.67;;;10.17;;
19036;SDS011;9651;49.138;8.900;2024-03-08T22:02:07;14.87;;;8.40;;
19036;SDS011;9651;49.138;8.900;2024-03-08T22:06:11;20.63;;;7.67;;
19036;SDS011;9651;49.138;8.900;2024-03-08T22:10:14;15.03;;;8.00;;
19036;SDS011;9651;49.138;8.900;2024-03-08T22:14:20;11.13;;;7.03;;
19036;SDS011;9651;49.138;8.900;2024-03-08T22:18:23;12.83;;;8.07;;
19036;SDS011;9651;49.138;8.900;2024-03-08T22:22:31;14.27;;;7.17;;
19036;SDS011;9651;49.138;8.900;2024-03-08T22:26:33;14.50;;;7.47;;
19036;SDS011;9651;49.138;8.900;2024-03-08T22:30:35;12.10;;;6.93;;
19036;SDS011;9651;49.138;8.900;2024-03-08T22:34:37;14.40;;;8.60;;
19036;SDS011;9651;49.138;8.900;2024-03-08T22:38:41;14.57;;;8.33;;
19036;SDS011;9651;49.138;8.900;2024-03-08T22:42:43;15.17;;;8.60;;
19036;SDS011;9651;49.138;8.900;2024-03-08T22:46:46;14.23;;;8.07;;
19036;SDS011;9651;49.138;8.900;2024-03-08T22:50:48;16.63;;;7.57;;
19036;SDS011;9651;49.138;8.900;2024-03-08T22:54:51;13.03;;;8.33;;
19036;SDS011;9651;49.138;8.900;2024-03-08T22:58:53;14.20;;;7.90;;
19036;SDS011;9651;49.138;8.900;2024-03-08T23:02:55;14.93;;;8.33;;
19036;SDS011;9651;49.138;8.900;2024-03-08T23:06:57;13.97;;;8.03;;
19036;SDS011;9651;49.138;8.900;2024-03-08T23:11:01;18.43;;;8.63;;
19036;SDS011;9651;49.138;8.900;2024-03-08T23:15:04;13.67;;;7.20;;
19036;SDS011;9651;49.138;8.900;2024-03-08T23:19:09;11.90;;;6.83;;
19036;SDS011;9651;49.138;8.900;2024-03-08T23:23:11;12.77;;;7.03;;
19036;SDS011;9651;49.138;8.900;2024-03-08T23:27:15;12.57;;;8.23;;
19036;SDS011;9651;49.138;8.900;2024-03-08T23:31:18;12.37;;;7.20;;
19036;SDS011;9651;49.138;8.900;2024-03-08T23:35:21;11.27;;;6.70;;
19036;SDS011;9651;49.138;8.900;2024-03-08T23:39:23;12.30;;;6.53;;
19036;SDS011;9651;49.138;8.900;2024-03-08T23:43:27;13.23;;;7.60;;
19036;SDS011;9651;49.138;8.900;2024-03-08T23:47:29;13.47;;;7.80;;
19036;SDS011;9651;49.138;8.900;2024-03-08T23:51:31;13.20;;;7.17;;
19036;SDS011;9651;49.138;8.900;2024-03-08T23:55:35;13.27;;;6.97;;
19036;SDS011;9651;49.138;8.900;2024-03-08T23:59:39;13.47;;;7.67;;
